Shawondassee, Connecticut
Current Conditions -  °F | °C
As of 2:53 AM on Thursday 29 Jan 2015 (Local Time) from KWST Reporting Station
Clear Clear  
Wind Chill:   Ceiling: Unl
Heat Index:   Visibility: 10mi
Dew Point: -2°   Wind: 5mph
Humidity: 64%   Direction: 360°N
Pressure: 30.28"   Gusts: NA
Location:  41.3809°N, 71.9121°W
Report Text: KWST 290753Z AUTO 36004KT 10SM CLR M13/M19 A3028 RMK AO2 SLP255 T11331189
Loading
Personal Weather Stations






























Interactive Weather Map New forecast layout! Learn more

10-Day Weather Forecast

Advertisements
Track Severe Weather on mobile